sensor_id;sensor_type;location;lat;lon;timestamp;P1;durP1;ratioP1;P2;durP2;ratioP2
26488;SDS011;14169;43.684;10.484;2023-01-19T00:02:16;1.73;;;0.95;;
26488;SDS011;14169;43.684;10.484;2023-01-19T00:04:41;2.58;;;1.15;;
26488;SDS011;14169;43.684;10.484;2023-01-19T00:07:07;1.50;;;0.80;;
26488;SDS011;14169;43.684;10.484;2023-01-19T00:09:32;2.47;;;0.93;;
26488;SDS011;14169;43.684;10.484;2023-01-19T00:11:58;2.67;;;1.20;;
26488;SDS011;14169;43.684;10.484;2023-01-19T00:14:24;2.92;;;1.40;;
26488;SDS011;14169;43.684;10.484;2023-01-19T00:16:49;3.17;;;1.63;;
26488;SDS011;14169;43.684;10.484;2023-01-19T00:19:14;3.47;;;2.40;;
26488;SDS011;14169;43.684;10.484;2023-01-19T00:21:40;3.08;;;2.45;;
26488;SDS011;14169;43.684;10.484;2023-01-19T00:24:06;3.35;;;2.58;;
26488;SDS011;14169;43.684;10.484;2023-01-19T00:26:31;4.03;;;3.30;;
26488;SDS011;14169;43.684;10.484;2023-01-19T00:28:57;4.38;;;3.08;;
26488;SDS011;14169;43.684;10.484;2023-01-19T00:31:22;5.15;;;3.00;;
26488;SDS011;14169;43.684;10.484;2023-01-19T00:33:47;4.53;;;4.13;;
26488;SDS011;14169;43.684;10.484;2023-01-19T00:36:13;8.02;;;4.32;;
26488;SDS011;14169;43.684;10.484;2023-01-19T00:38:40;4.57;;;3.75;;
26488;SDS011;14169;43.684;10.484;2023-01-19T00:41:05;4.68;;;4.20;;
26488;SDS011;14169;43.684;10.484;2023-01-19T00:43:30;4.32;;;3.55;;
26488;SDS011;14169;43.684;10.484;2023-01-19T00:45:56;5.10;;;3.05;;
26488;SDS011;14169;43.684;10.484;2023-01-19T00:48:21;5.00;;;3.35;;
26488;SDS011;14169;43.684;10.484;2023-01-19T00:50:47;3.70;;;3.40;;
26488;SDS011;14169;43.684;10.484;2023-01-19T00:53:13;4.00;;;3.33;;
26488;SDS011;14169;43.684;10.484;2023-01-19T00:55:38;3.83;;;2.90;;
26488;SDS011;14169;43.684;10.484;2023-01-19T00:58:04;6.05;;;4.03;;
26488;SDS011;14169;43.684;10.484;2023-01-19T01:00:30;3.50;;;3.03;;
26488;SDS011;14169;43.684;10.484;2023-01-19T01:02:56;4.10;;;2.70;;
26488;SDS011;14169;43.684;10.484;2023-01-19T01:05:21;2.80;;;2.60;;
26488;SDS011;14169;43.684;10.484;2023-01-19T01:07:47;3.22;;;2.80;;
26488;SDS011;14169;43.684;10.484;2023-01-19T01:12:43;3.05;;;2.70;;
26488;SDS011;14169;43.684;10.484;2023-01-19T01:15:10;2.58;;;2.38;;
26488;SDS011;14169;43.684;10.484;2023-01-19T01:17:37;3.60;;;2.40;;
26488;SDS011;14169;43.684;10.484;2023-01-19T01:20:10;4.07;;;2.40;;
26488;SDS011;14169;43.684;10.484;2023-01-19T01:22:40;3.00;;;2.22;;
26488;SDS011;14169;43.684;10.484;2023-01-19T01:25:15;3.60;;;3.30;;
26488;SDS011;14169;43.684;10.484;2023-01-19T01:27:43;3.90;;;2.75;;
26488;SDS011;14169;43.684;10.484;2023-01-19T01:30:09;2.47;;;1.98;;
26488;SDS011;14169;43.684;10.484;2023-01-19T01:32:36;2.40;;;1.92;;
26488;SDS011;14169;43.684;10.484;2023-01-19T01:35:02;3.55;;;2.13;;
26488;SDS011;14169;43.684;10.484;2023-01-19T01:37:28;2.58;;;2.20;;
26488;SDS011;14169;43.684;10.484;2023-01-19T01:39:54;2.10;;;1.80;;
26488;SDS011;14169;43.684;10.484;2023-01-19T01:42:19;3.28;;;1.58;;
26488;SDS011;14169;43.684;10.484;2023-01-19T01:44:58;2.67;;;1.27;;
26488;SDS011;14169;43.684;10.484;2023-01-19T01:47:33;2.83;;;1.02;;
26488;SDS011;14169;43.684;10.484;2023-01-19T01:50:17;1.80;;;1.10;;
26488;SDS011;14169;43.684;10.484;2023-01-19T01:52:48;1.85;;;0.70;;
26488;SDS011;14169;43.684;10.484;2023-01-19T01:55:18;2.90;;;0.80;;
26488;SDS011;14169;43.684;10.484;2023-01-19T01:57:47;1.95;;;0.70;;
26488;SDS011;14169;43.684;10.484;2023-01-19T02:00:16;1.30;;;0.70;;
26488;SDS011;14169;43.684;10.484;2023-01-19T02:02:41;1.95;;;1.00;;
26488;SDS011;14169;43.684;10.484;2023-01-19T02:05:33;3.00;;;0.70;;
26488;SDS011;14169;43.684;10.484;2023-01-19T02:08:02;3.03;;;1.10;;
26488;SDS011;14169;43.684;10.484;2023-01-19T02:10:51;4.57;;;0.80;;
26488;SDS011;14169;43.684;10.484;2023-01-19T02:13:38;2.97;;;0.95;;
26488;SDS011;14169;43.684;10.484;2023-01-19T02:16:08;3.42;;;0.90;;
26488;SDS011;14169;43.684;10.484;2023-01-19T02:18:34;2.28;;;1.00;;
26488;SDS011;14169;43.684;10.484;2023-01-19T02:21:13;1.58;;;0.80;;
26488;SDS011;14169;43.684;10.484;2023-01-19T02:26:12;1.77;;;0.80;;
26488;SDS011;14169;43.684;10.484;2023-01-19T02:28:42;2.72;;;0.85;;
26488;SDS011;14169;43.684;10.484;2023-01-19T02:31:12;2.10;;;0.88;;
26488;SDS011;14169;43.684;10.484;2023-01-19T02:33:39;2.60;;;1.13;;
26488;SDS011;14169;43.684;10.484;2023-01-19T02:36:05;2.45;;;1.00;;
26488;SDS011;14169;43.684;10.484;2023-01-19T02:38:34;2.15;;;0.80;;
26488;SDS011;14169;43.684;10.484;2023-01-19T02:41:01;1.33;;;0.93;;
26488;SDS011;14169;43.684;10.484;2023-01-19T02:43:30;1.52;;;0.80;;
26488;SDS011;14169;43.684;10.484;2023-01-19T02:45:57;1.33;;;0.90;;
26488;SDS011;14169;43.684;10.484;2023-01-19T02:48:22;1.38;;;0.80;;
26488;SDS011;14169;43.684;10.484;2023-01-19T02:50:49;1.60;;;0.82;;
26488;SDS011;14169;43.684;10.484;2023-01-19T02:53:30;2.33;;;1.38;;
26488;SDS011;14169;43.684;10.484;2023-01-19T02:59:23;2.58;;;0.98;;
26488;SDS011;14169;43.684;10.484;2023-01-19T03:07:41;1.77;;;0.88;;
26488;SDS011;14169;43.684;10.484;2023-01-19T03:15:35;1.35;;;0.40;;
26488;SDS011;14169;43.684;10.484;2023-01-19T03:18:04;2.83;;;0.55;;
26488;SDS011;14169;43.684;10.484;2023-01-19T03:20:33;2.15;;;0.50;;
26488;SDS011;14169;43.684;10.484;2023-01-19T03:22:59;5.00;;;0.60;;
26488;SDS011;14169;43.684;10.484;2023-01-19T03:25:30;1.50;;;0.45;;
26488;SDS011;14169;43.684;10.484;2023-01-19T03:27:59;0.88;;;0.45;;
26488;SDS011;14169;43.684;10.484;2023-01-19T03:30:31;1.50;;;0.52;;
26488;SDS011;14169;43.684;10.484;2023-01-19T03:33:02;0.93;;;0.40;;
26488;SDS011;14169;43.684;10.484;2023-01-19T03:35:32;4.28;;;1.48;;
26488;SDS011;14169;43.684;10.484;2023-01-19T03:38:02;1.08;;;0.50;;
26488;SDS011;14169;43.684;10.484;2023-01-19T03:40:33;1.95;;;0.50;;
26488;SDS011;14169;43.684;10.484;2023-01-19T03:43:00;1.10;;;0.43;;
26488;SDS011;14169;43.684;10.484;2023-01-19T03:45:28;2.83;;;0.70;;
26488;SDS011;14169;43.684;10.484;2023-01-19T03:47:57;2.63;;;0.65;;
26488;SDS011;14169;43.684;10.484;2023-01-19T03:50:24;2.50;;;0.90;;
26488;SDS011;14169;43.684;10.484;2023-01-19T03:53:05;2.17;;;0.80;;
26488;SDS011;14169;43.684;10.484;2023-01-19T03:55:36;0.85;;;0.68;;
26488;SDS011;14169;43.684;10.484;2023-01-19T03:58:02;3.42;;;0.90;;
26488;SDS011;14169;43.684;10.484;2023-01-19T04:00:28;1.33;;;0.95;;
26488;SDS011;14169;43.684;10.484;2023-01-19T04:02:54;2.80;;;1.13;;
26488;SDS011;14169;43.684;10.484;2023-01-19T04:05:20;1.98;;;1.00;;
26488;SDS011;14169;43.684;10.484;2023-01-19T04:07:49;3.00;;;1.17;;
26488;SDS011;14169;43.684;10.484;2023-01-19T04:10:18;1.40;;;1.20;;
26488;SDS011;14169;43.684;10.484;2023-01-19T04:12:44;3.13;;;1.08;;
26488;SDS011;14169;43.684;10.484;2023-01-19T04:15:10;2.58;;;1.30;;
26488;SDS011;14169;43.684;10.484;2023-01-19T04:17:35;1.40;;;1.15;;
26488;SDS011;14169;43.684;10.484;2023-01-19T04:20:01;2.10;;;1.10;;
26488;SDS011;14169;43.684;10.484;2023-01-19T04:22:26;2.05;;;1.10;;
26488;SDS011;14169;43.684;10.484;2023-01-19T04:24:52;2.67;;;1.23;;
26488;SDS011;14169;43.684;10.484;2023-01-19T04:27:18;1.77;;;1.02;;
26488;SDS011;14169;43.684;10.484;2023-01-19T04:29:43;2.78;;;1.08;;
26488;SDS011;14169;43.684;10.484;2023-01-19T04:32:09;1.33;;;0.77;;
26488;SDS011;14169;43.684;10.484;2023-01-19T04:34:34;0.95;;;0.88;;
26488;SDS011;14169;43.684;10.484;2023-01-19T04:37:00;1.77;;;0.90;;
26488;SDS011;14169;43.684;10.484;2023-01-19T04:39:25;2.42;;;0.80;;
26488;SDS011;14169;43.684;10.484;2023-01-19T04:41:51;2.00;;;0.80;;
26488;SDS011;14169;43.684;10.484;2023-01-19T04:44:17;0.90;;;0.70;;
26488;SDS011;14169;43.684;10.484;2023-01-19T04:46:42;1.27;;;0.88;;
26488;SDS011;14169;43.684;10.484;2023-01-19T04:49:08;5.68;;;1.00;;
26488;SDS011;14169;43.684;10.484;2023-01-19T04:51:34;1.35;;;0.70;;
26488;SDS011;14169;43.684;10.484;2023-01-19T04:54:00;2.42;;;0.80;;
26488;SDS011;14169;43.684;10.484;2023-01-19T04:56:26;2.47;;;1.20;;
26488;SDS011;14169;43.684;10.484;2023-01-19T04:58:52;2.22;;;1.67;;
26488;SDS011;14169;43.684;10.484;2023-01-19T05:01:17;2.55;;;1.50;;
26488;SDS011;14169;43.684;10.484;2023-01-19T05:03:43;1.88;;;1.00;;
26488;SDS011;14169;43.684;10.484;2023-01-19T05:06:08;3.47;;;0.90;;
26488;SDS011;14169;43.684;10.484;2023-01-19T05:08:34;2.13;;;0.95;;
26488;SDS011;14169;43.684;10.484;2023-01-19T05:10:59;4.85;;;0.90;;
26488;SDS011;14169;43.684;10.484;2023-01-19T05:13:24;1.15;;;0.60;;
26488;SDS011;14169;43.684;10.484;2023-01-19T05:15:50;1.77;;;0.77;;
26488;SDS011;14169;43.684;10.484;2023-01-19T05:18:15;2.38;;;0.63;;
26488;SDS011;14169;43.684;10.484;2023-01-19T05:20:41;2.78;;;0.77;;
26488;SDS011;14169;43.684;10.484;2023-01-19T05:23:06;1.35;;;0.60;;
26488;SDS011;14169;43.684;10.484;2023-01-19T05:25:31;1.70;;;0.93;;
26488;SDS011;14169;43.684;10.484;2023-01-19T05:27:57;6.30;;;0.70;;
26488;SDS011;14169;43.684;10.484;2023-01-19T05:30:22;2.65;;;0.90;;
26488;SDS011;14169;43.684;10.484;2023-01-19T05:32:47;2.10;;;0.88;;
26488;SDS011;14169;43.684;10.484;2023-01-19T05:35:13;1.65;;;0.60;;
26488;SDS011;14169;43.684;10.484;2023-01-19T05:37:40;3.00;;;0.85;;
26488;SDS011;14169;43.684;10.484;2023-01-19T05:40:06;2.20;;;0.70;;
26488;SDS011;14169;43.684;10.484;2023-01-19T05:42:32;1.67;;;0.70;;
26488;SDS011;14169;43.684;10.484;2023-01-19T05:44:58;2.38;;;0.68;;
26488;SDS011;14169;43.684;10.484;2023-01-19T05:47:24;1.40;;;0.35;;
26488;SDS011;14169;43.684;10.484;2023-01-19T05:49:49;0.77;;;0.25;;
26488;SDS011;14169;43.684;10.484;2023-01-19T05:52:15;0.43;;;0.15;;
26488;SDS011;14169;43.684;10.484;2023-01-19T05:54:40;0.98;;;0.28;;
26488;SDS011;14169;43.684;10.484;2023-01-19T05:57:06;2.03;;;0.30;;
26488;SDS011;14169;43.684;10.484;2023-01-19T05:59:31;2.05;;;0.13;;
26488;SDS011;14169;43.684;10.484;2023-01-19T06:01:57;0.30;;;0.20;;
26488;SDS011;14169;43.684;10.484;2023-01-19T06:04:24;0.45;;;0.20;;
26488;SDS011;14169;43.684;10.484;2023-01-19T06:06:49;0.20;;;0.20;;
26488;SDS011;14169;43.684;10.484;2023-01-19T06:09:15;0.63;;;0.10;;
26488;SDS011;14169;43.684;10.484;2023-01-19T06:11:42;0.60;;;0.20;;
26488;SDS011;14169;43.684;10.484;2023-01-19T06:14:08;0.40;;;0.40;;
26488;SDS011;14169;43.684;10.484;2023-01-19T06:16:34;0.40;;;0.40;;
26488;SDS011;14169;43.684;10.484;2023-01-19T06:19:00;0.60;;;0.50;;
26488;SDS011;14169;43.684;10.484;2023-01-19T06:21:25;0.20;;;0.20;;
26488;SDS011;14169;43.684;10.484;2023-01-19T06:23:51;0.10;;;0.10;;
26488;SDS011;14169;43.684;10.484;2023-01-19T06:26:16;0.52;;;0.30;;
26488;SDS011;14169;43.684;10.484;2023-01-19T06:28:42;0.75;;;0.68;;
26488;SDS011;14169;43.684;10.484;2023-01-19T06:31:07;0.43;;;0.43;;
26488;SDS011;14169;43.684;10.484;2023-01-19T06:33:32;1.35;;;0.50;;
26488;SDS011;14169;43.684;10.484;2023-01-19T06:35:58;0.45;;;0.43;;
26488;SDS011;14169;43.684;10.484;2023-01-19T06:38:23;1.35;;;0.40;;
26488;SDS011;14169;43.684;10.484;2023-01-19T06:40:55;0.40;;;0.30;;
26488;SDS011;14169;43.684;10.484;2023-01-19T06:43:27;1.98;;;0.50;;
26488;SDS011;14169;43.684;10.484;2023-01-19T06:45:53;1.23;;;0.50;;
26488;SDS011;14169;43.684;10.484;2023-01-19T06:48:20;0.82;;;0.60;;
26488;SDS011;14169;43.684;10.484;2023-01-19T06:50:46;0.70;;;0.52;;
26488;SDS011;14169;43.684;10.484;2023-01-19T06:53:13;1.60;;;0.70;;
26488;SDS011;14169;43.684;10.484;2023-01-19T06:55:41;1.70;;;1.10;;
26488;SDS011;14169;43.684;10.484;2023-01-19T06:58:10;1.63;;;1.20;;
26488;SDS011;14169;43.684;10.484;2023-01-19T07:00:36;2.80;;;1.45;;
26488;SDS011;14169;43.684;10.484;2023-01-19T07:03:04;3.13;;;1.92;;
26488;SDS011;14169;43.684;10.484;2023-01-19T07:05:31;2.00;;;1.17;;
26488;SDS011;14169;43.684;10.484;2023-01-19T07:07:59;1.52;;;1.00;;
26488;SDS011;14169;43.684;10.484;2023-01-19T07:10:24;1.70;;;1.10;;
26488;SDS011;14169;43.684;10.484;2023-01-19T07:12:49;2.47;;;1.13;;
26488;SDS011;14169;43.684;10.484;2023-01-19T07:15:15;1.17;;;0.80;;
26488;SDS011;14169;43.684;10.484;2023-01-19T07:17:43;1.30;;;0.80;;
26488;SDS011;14169;43.684;10.484;2023-01-19T07:20:09;0.93;;;0.70;;
26488;SDS011;14169;43.684;10.484;2023-01-19T07:22:38;0.70;;;0.65;;
26488;SDS011;14169;43.684;10.484;2023-01-19T07:25:10;1.70;;;0.95;;
26488;SDS011;14169;43.684;10.484;2023-01-19T07:27:37;0.80;;;0.63;;
26488;SDS011;14169;43.684;10.484;2023-01-19T07:30:02;1.38;;;0.50;;
26488;SDS011;14169;43.684;10.484;2023-01-19T07:32:28;0.73;;;0.52;;
26488;SDS011;14169;43.684;10.484;2023-01-19T07:34:54;1.05;;;0.60;;
26488;SDS011;14169;43.684;10.484;2023-01-19T07:37:20;1.02;;;0.60;;
26488;SDS011;14169;43.684;10.484;2023-01-19T07:39:45;1.23;;;0.60;;
26488;SDS011;14169;43.684;10.484;2023-01-19T07:42:11;0.50;;;0.47;;
26488;SDS011;14169;43.684;10.484;2023-01-19T07:44:36;0.68;;;0.52;;
26488;SDS011;14169;43.684;10.484;2023-01-19T07:47:02;1.67;;;1.08;;
26488;SDS011;14169;43.684;10.484;2023-01-19T07:49:31;0.95;;;0.75;;
26488;SDS011;14169;43.684;10.484;2023-01-19T07:51:57;0.93;;;0.82;;
26488;SDS011;14169;43.684;10.484;2023-01-19T07:54:22;2.05;;;0.80;;
26488;SDS011;14169;43.684;10.484;2023-01-19T07:56:47;1.15;;;0.55;;
26488;SDS011;14169;43.684;10.484;2023-01-19T07:59:13;0.98;;;0.50;;
26488;SDS011;14169;43.684;10.484;2023-01-19T08:01:38;0.80;;;0.60;;
26488;SDS011;14169;43.684;10.484;2023-01-19T08:04:04;2.45;;;0.70;;
26488;SDS011;14169;43.684;10.484;2023-01-19T08:06:33;1.70;;;0.60;;
26488;SDS011;14169;43.684;10.484;2023-01-19T08:09:00;0.85;;;0.50;;
26488;SDS011;14169;43.684;10.484;2023-01-19T08:11:29;1.05;;;0.60;;
26488;SDS011;14169;43.684;10.484;2023-01-19T08:13:55;2.78;;;0.93;;
26488;SDS011;14169;43.684;10.484;2023-01-19T08:16:21;2.17;;;1.65;;
26488;SDS011;14169;43.684;10.484;2023-01-19T08:18:46;1.67;;;0.63;;
26488;SDS011;14169;43.684;10.484;2023-01-19T08:21:11;1.00;;;0.55;;
26488;SDS011;14169;43.684;10.484;2023-01-19T08:23:37;0.98;;;0.50;;
26488;SDS011;14169;43.684;10.484;2023-01-19T08:26:16;1.25;;;0.60;;
26488;SDS011;14169;43.684;10.484;2023-01-19T08:28:55;0.75;;;0.30;;
26488;SDS011;14169;43.684;10.484;2023-01-19T08:31:22;2.13;;;0.85;;
26488;SDS011;14169;43.684;10.484;2023-01-19T08:33:48;12.18;;;7.85;;
26488;SDS011;14169;43.684;10.484;2023-01-19T08:36:13;8.25;;;6.60;;
26488;SDS011;14169;43.684;10.484;2023-01-19T08:38:39;4.20;;;2.00;;
26488;SDS011;14169;43.684;10.484;2023-01-19T08:41:07;2.90;;;1.70;;
26488;SDS011;14169;43.684;10.484;2023-01-19T08:43:33;10.95;;;10.05;;
26488;SDS011;14169;43.684;10.484;2023-01-19T08:45:58;4.53;;;3.75;;
26488;SDS011;14169;43.684;10.484;2023-01-19T08:48:24;2.25;;;1.75;;
26488;SDS011;14169;43.684;10.484;2023-01-19T08:50:50;0.82;;;0.70;;
26488;SDS011;14169;43.684;10.484;2023-01-19T08:53:16;1.38;;;0.80;;
26488;SDS011;14169;43.684;10.484;2023-01-19T08:55:43;5.25;;;0.98;;
26488;SDS011;14169;43.684;10.484;2023-01-19T08:58:08;1.25;;;0.70;;
26488;SDS011;14169;43.684;10.484;2023-01-19T09:00:34;0.57;;;0.45;;
26488;SDS011;14169;43.684;10.484;2023-01-19T09:03:04;0.98;;;0.60;;
26488;SDS011;14169;43.684;10.484;2023-01-19T09:05:31;1.23;;;0.38;;
26488;SDS011;14169;43.684;10.484;2023-01-19T09:08:03;0.32;;;0.30;;
26488;SDS011;14169;43.684;10.484;2023-01-19T09:10:32;0.50;;;0.40;;
26488;SDS011;14169;43.684;10.484;2023-01-19T09:13:03;0.60;;;0.43;;
26488;SDS011;14169;43.684;10.484;2023-01-19T09:15:30;0.85;;;0.40;;
26488;SDS011;14169;43.684;10.484;2023-01-19T09:17:58;1.90;;;1.52;;
26488;SDS011;14169;43.684;10.484;2023-01-19T09:20:23;5.25;;;4.38;;
26488;SDS011;14169;43.684;10.484;2023-01-19T09:22:49;2.88;;;1.40;;
26488;SDS011;14169;43.684;10.484;2023-01-19T09:25:15;1.20;;;1.00;;
26488;SDS011;14169;43.684;10.484;2023-01-19T09:27:40;1.67;;;1.02;;
26488;SDS011;14169;43.684;10.484;2023-01-19T09:30:05;2.15;;;1.00;;
26488;SDS011;14169;43.684;10.484;2023-01-19T09:32:34;1.95;;;0.90;;
26488;SDS011;14169;43.684;10.484;2023-01-19T09:34:59;2.22;;;0.73;;
26488;SDS011;14169;43.684;10.484;2023-01-19T09:37:24;1.80;;;0.95;;
26488;SDS011;14169;43.684;10.484;2023-01-19T09:39:50;1.00;;;0.57;;
26488;SDS011;14169;43.684;10.484;2023-01-19T09:42:26;1.30;;;0.60;;
26488;SDS011;14169;43.684;10.484;2023-01-19T09:44:55;2.20;;;0.70;;
26488;SDS011;14169;43.684;10.484;2023-01-19T09:47:25;0.85;;;0.65;;
26488;SDS011;14169;43.684;10.484;2023-01-19T09:50:04;0.65;;;0.40;;
26488;SDS011;14169;43.684;10.484;2023-01-19T09:52:36;0.70;;;0.40;;
26488;SDS011;14169;43.684;10.484;2023-01-19T09:55:11;0.65;;;0.50;;
26488;SDS011;14169;43.684;10.484;2023-01-19T09:57:44;0.50;;;0.50;;
26488;SDS011;14169;43.684;10.484;2023-01-19T10:00:15;1.42;;;1.13;;
26488;SDS011;14169;43.684;10.484;2023-01-19T10:02:45;0.85;;;0.55;;
26488;SDS011;14169;43.684;10.484;2023-01-19T10:08:11;1.00;;;0.70;;
26488;SDS011;14169;43.684;10.484;2023-01-19T10:10:46;1.10;;;0.80;;
26488;SDS011;14169;43.684;10.484;2023-01-19T10:18:48;1.70;;;0.50;;
26488;SDS011;14169;43.684;10.484;2023-01-19T10:21:23;2.17;;;0.60;;
26488;SDS011;14169;43.684;10.484;2023-01-19T10:23:58;1.17;;;0.50;;
26488;SDS011;14169;43.684;10.484;2023-01-19T10:26:36;0.47;;;0.32;;
26488;SDS011;14169;43.684;10.484;2023-01-19T10:29:17;2.25;;;0.60;;
26488;SDS011;14169;43.684;10.484;2023-01-19T10:31:45;1.23;;;0.43;;
26488;SDS011;14169;43.684;10.484;2023-01-19T10:34:11;1.33;;;0.60;;
26488;SDS011;14169;43.684;10.484;2023-01-19T10:36:42;0.63;;;0.40;;
26488;SDS011;14169;43.684;10.484;2023-01-19T10:39:10;1.35;;;0.40;;
26488;SDS011;14169;43.684;10.484;2023-01-19T10:41:43;4.75;;;0.80;;
26488;SDS011;14169;43.684;10.484;2023-01-19T10:44:22;1.20;;;0.50;;
26488;SDS011;14169;43.684;10.484;2023-01-19T10:46:49;0.98;;;0.57;;
26488;SDS011;14169;43.684;10.484;2023-01-19T10:52:01;4.38;;;2.03;;
26488;SDS011;14169;43.684;10.484;2023-01-19T10:54:29;5.32;;;1.95;;
26488;SDS011;14169;43.684;10.484;2023-01-19T10:56:58;2.65;;;1.15;;
26488;SDS011;14169;43.684;10.484;2023-01-19T11:02:18;3.20;;;1.40;;
26488;SDS011;14169;43.684;10.484;2023-01-19T11:04:41;2.25;;;0.95;;
26488;SDS011;14169;43.684;10.484;2023-01-19T11:07:13;1.25;;;0.82;;
26488;SDS011;14169;43.684;10.484;2023-01-19T11:09:41;1.20;;;1.08;;
26488;SDS011;14169;43.684;10.484;2023-01-19T11:12:14;4.05;;;2.25;;
26488;SDS011;14169;43.684;10.484;2023-01-19T11:14:41;5.55;;;1.98;;
26488;SDS011;14169;43.684;10.484;2023-01-19T11:17:12;2.78;;;1.20;;
26488;SDS011;14169;43.684;10.484;2023-01-19T11:19:46;5.40;;;2.47;;
26488;SDS011;14169;43.684;10.484;2023-01-19T11:22:24;3.13;;;1.23;;
26488;SDS011;14169;43.684;10.484;2023-01-19T11:24:52;3.65;;;1.38;;
26488;SDS011;14169;43.684;10.484;2023-01-19T11:27:22;2.63;;;1.40;;
26488;SDS011;14169;43.684;10.484;2023-01-19T11:29:48;1.92;;;0.90;;
26488;SDS011;14169;43.684;10.484;2023-01-19T11:32:21;2.95;;;1.10;;
26488;SDS011;14169;43.684;10.484;2023-01-19T11:34:47;3.10;;;1.98;;
26488;SDS011;14169;43.684;10.484;2023-01-19T11:39:48;2.72;;;1.20;;
26488;SDS011;14169;43.684;10.484;2023-01-19T11:42:15;2.15;;;1.00;;
26488;SDS011;14169;43.684;10.484;2023-01-19T11:44:43;1.27;;;0.98;;
26488;SDS011;14169;43.684;10.484;2023-01-19T11:47:16;1.65;;;0.90;;
26488;SDS011;14169;43.684;10.484;2023-01-19T11:55:21;3.95;;;0.57;;
26488;SDS011;14169;43.684;10.484;2023-01-19T11:57:55;2.88;;;0.85;;
26488;SDS011;14169;43.684;10.484;2023-01-19T12:00:32;2.15;;;0.70;;
26488;SDS011;14169;43.684;10.484;2023-01-19T12:03:03;1.50;;;0.45;;
26488;SDS011;14169;43.684;10.484;2023-01-19T12:05:43;1.65;;;0.47;;
26488;SDS011;14169;43.684;10.484;2023-01-19T12:08:21;3.03;;;0.63;;
26488;SDS011;14169;43.684;10.484;2023-01-19T12:10:51;2.53;;;1.10;;
26488;SDS011;14169;43.684;10.484;2023-01-19T12:13:22;2.35;;;1.25;;
26488;SDS011;14169;43.684;10.484;2023-01-19T12:15:50;1.50;;;0.70;;
26488;SDS011;14169;43.684;10.484;2023-01-19T12:18:23;2.20;;;1.40;;
26488;SDS011;14169;43.684;10.484;2023-01-19T12:20:53;3.88;;;2.38;;
26488;SDS011;14169;43.684;10.484;2023-01-19T12:23:26;2.83;;;1.50;;
26488;SDS011;14169;43.684;10.484;2023-01-19T12:28:41;2.00;;;1.30;;
26488;SDS011;14169;43.684;10.484;2023-01-19T12:31:09;1.05;;;0.60;;
26488;SDS011;14169;43.684;10.484;2023-01-19T12:33:43;1.17;;;0.80;;
26488;SDS011;14169;43.684;10.484;2023-01-19T12:43:48;1.08;;;0.85;;
26488;SDS011;14169;43.684;10.484;2023-01-19T12:49:05;1.42;;;0.65;;
26488;SDS011;14169;43.684;10.484;2023-01-19T12:51:47;3.15;;;0.90;;
26488;SDS011;14169;43.684;10.484;2023-01-19T12:54:27;1.48;;;0.93;;
26488;SDS011;14169;43.684;10.484;2023-01-19T12:56:59;2.35;;;0.50;;
26488;SDS011;14169;43.684;10.484;2023-01-19T12:59:30;2.10;;;0.80;;
26488;SDS011;14169;43.684;10.484;2023-01-19T13:13:55;1.92;;;1.38;;
26488;SDS011;14169;43.684;10.484;2023-01-19T13:24:02;0.65;;;0.45;;
26488;SDS011;14169;43.684;10.484;2023-01-19T13:26:31;1.13;;;0.47;;
26488;SDS011;14169;43.684;10.484;2023-01-19T13:29:02;0.70;;;0.55;;
26488;SDS011;14169;43.684;10.484;2023-01-19T13:31:41;1.50;;;0.82;;
26488;SDS011;14169;43.684;10.484;2023-01-19T13:34:23;1.55;;;0.70;;
26488;SDS011;14169;43.684;10.484;2023-01-19T13:36:52;0.73;;;0.57;;
26488;SDS011;14169;43.684;10.484;2023-01-19T13:45:05;3.58;;;1.02;;
26488;SDS011;14169;43.684;10.484;2023-01-19T13:47:47;0.80;;;0.68;;
26488;SDS011;14169;43.684;10.484;2023-01-19T13:50:21;1.15;;;0.70;;
26488;SDS011;14169;43.684;10.484;2023-01-19T13:52:49;2.00;;;0.80;;
26488;SDS011;14169;43.684;10.484;2023-01-19T13:55:18;1.30;;;0.90;;
26488;SDS011;14169;43.684;10.484;2023-01-19T13:57:45;1.48;;;0.65;;
26488;SDS011;14169;43.684;10.484;2023-01-19T14:02:50;2.55;;;1.40;;
26488;SDS011;14169;43.684;10.484;2023-01-19T14:05:25;1.70;;;0.88;;
26488;SDS011;14169;43.684;10.484;2023-01-19T14:10:34;1.35;;;0.90;;
26488;SDS011;14169;43.684;10.484;2023-01-19T14:13:01;1.63;;;0.90;;
26488;SDS011;14169;43.684;10.484;2023-01-19T14:15:29;1.23;;;0.90;;
26488;SDS011;14169;43.684;10.484;2023-01-19T14:20:38;2.42;;;1.80;;
26488;SDS011;14169;43.684;10.484;2023-01-19T14:23:04;1.77;;;1.10;;
26488;SDS011;14169;43.684;10.484;2023-01-19T14:25:35;3.25;;;0.60;;
26488;SDS011;14169;43.684;10.484;2023-01-19T14:30:56;1.00;;;0.85;;
26488;SDS011;14169;43.684;10.484;2023-01-19T14:33:31;2.10;;;1.67;;
26488;SDS011;14169;43.684;10.484;2023-01-19T14:39:02;3.33;;;0.85;;
26488;SDS011;14169;43.684;10.484;2023-01-19T14:41:38;1.63;;;1.05;;
26488;SDS011;14169;43.684;10.484;2023-01-19T14:44:09;1.60;;;0.95;;
26488;SDS011;14169;43.684;10.484;2023-01-19T14:46:35;1.27;;;0.90;;
26488;SDS011;14169;43.684;10.484;2023-01-19T14:49:03;1.30;;;0.80;;
26488;SDS011;14169;43.684;10.484;2023-01-19T14:51:30;1.48;;;0.80;;
26488;SDS011;14169;43.684;10.484;2023-01-19T14:53:56;2.15;;;1.13;;
26488;SDS011;14169;43.684;10.484;2023-01-19T14:58:52;3.60;;;2.83;;
26488;SDS011;14169;43.684;10.484;2023-01-19T15:01:17;4.95;;;1.40;;
26488;SDS011;14169;43.684;10.484;2023-01-19T15:03:43;1.20;;;0.80;;
26488;SDS011;14169;43.684;10.484;2023-01-19T15:06:19;3.05;;;1.40;;
26488;SDS011;14169;43.684;10.484;2023-01-19T15:08:45;2.85;;;1.20;;
26488;SDS011;14169;43.684;10.484;2023-01-19T15:13:50;1.48;;;0.70;;
26488;SDS011;14169;43.684;10.484;2023-01-19T15:16:16;1.92;;;0.77;;
26488;SDS011;14169;43.684;10.484;2023-01-19T15:18:58;1.75;;;0.70;;
26488;SDS011;14169;43.684;10.484;2023-01-19T15:21:24;3.40;;;1.60;;
26488;SDS011;14169;43.684;10.484;2023-01-19T15:23:52;3.80;;;2.42;;
26488;SDS011;14169;43.684;10.484;2023-01-19T15:26:19;3.05;;;2.05;;
26488;SDS011;14169;43.684;10.484;2023-01-19T15:28:46;3.60;;;1.55;;
26488;SDS011;14169;43.684;10.484;2023-01-19T15:31:17;2.90;;;2.10;;
26488;SDS011;14169;43.684;10.484;2023-01-19T15:33:44;3.97;;;1.70;;
26488;SDS011;14169;43.684;10.484;2023-01-19T15:36:13;2.92;;;2.25;;
26488;SDS011;14169;43.684;10.484;2023-01-19T15:38:44;3.00;;;1.65;;
26488;SDS011;14169;43.684;10.484;2023-01-19T15:41:13;4.53;;;2.65;;
26488;SDS011;14169;43.684;10.484;2023-01-19T15:43:42;4.07;;;2.65;;
26488;SDS011;14169;43.684;10.484;2023-01-19T15:46:08;4.53;;;2.85;;
26488;SDS011;14169;43.684;10.484;2023-01-19T15:48:37;2.60;;;1.85;;
26488;SDS011;14169;43.684;10.484;2023-01-19T15:51:02;8.85;;;3.10;;
26488;SDS011;14169;43.684;10.484;2023-01-19T15:53:28;5.10;;;3.15;;
26488;SDS011;14169;43.684;10.484;2023-01-19T15:55:54;5.95;;;4.22;;
26488;SDS011;14169;43.684;10.484;2023-01-19T15:58:20;5.50;;;3.90;;
26488;SDS011;14169;43.684;10.484;2023-01-19T16:00:56;1.67;;;1.38;;
26488;SDS011;14169;43.684;10.484;2023-01-19T16:03:23;6.03;;;2.78;;
26488;SDS011;14169;43.684;10.484;2023-01-19T16:05:49;5.93;;;4.53;;
26488;SDS011;14169;43.684;10.484;2023-01-19T16:08:15;6.28;;;4.38;;
26488;SDS011;14169;43.684;10.484;2023-01-19T16:10:41;4.95;;;3.35;;
26488;SDS011;14169;43.684;10.484;2023-01-19T16:13:08;6.35;;;5.38;;
26488;SDS011;14169;43.684;10.484;2023-01-19T16:15:34;4.30;;;2.60;;
26488;SDS011;14169;43.684;10.484;2023-01-19T16:18:01;4.40;;;1.60;;
26488;SDS011;14169;43.684;10.484;2023-01-19T16:20:27;1.80;;;1.35;;